Terminal Aerodrome Forecast
Issued by NWS

Home | Current Version | Previous Version | Text Only | Print | Product List | Glossary On
Versions: 1 2 3 4 5 6 7 8 9 10 11 12 13 14 15 16 17 18 19 20 21 22 23 24 25
000
FTUS45 KCYS 202321
TAFLAR
TAF
KLAR 202321Z 2100/2124 22010KT P6SM BKN100 BKN200
     FM210100 21008KT P6SM BKN080 BKN150
     FM211500 24012KT P6SM FEW150
     FM211800 26015G23KT P6SM SKC=

USA.gov is the U.S. government's official web portal to all federal, state and local government web resources and services.